Time;durP1;ratioP1;P1;durP2;ratioP2;P2;SDS_P1;SDS_P2;PMS_P1;PMS_P2;Temp;Humidity;BMP_temperature;BMP_pressure;BME280_temperature;BME280_humidity;BME280_pressure;Samples;Min_cycle;Max_cycle;Signal;HPM_P1;HPM_P2
2021/04/24 00:01:30;;;;;;;13.70;6.53;;;;;;;;;;5077062;28;20256;-69
2021/04/24 00:03:56;;;;;;;12.93;7.10;;;;;;;;;;5078738;28;20192;-70
2021/04/24 00:06:22;;;;;;;10.57;5.67;;;;;;;;;;5079324;28;20185;-69
2021/04/24 00:08:47;;;;;;;12.53;6.37;;;;;;;;;;5078015;28;20676;-70
2021/04/24 00:11:12;;;;;;;12.63;6.53;;;;;;;;;;5076931;28;20233;-69
2021/04/24 00:13:37;;;;;;;14.97;6.00;;;;;;;;;;5076442;28;20569;-70
2021/04/24 00:16:03;;;;;;;11.77;6.43;;;;;;;;;;5078306;28;20189;-69
2021/04/24 00:18:28;;;;;;;11.83;7.00;;;;;;;;;;5078495;28;20172;-69
2021/04/24 00:20:53;;;;;;;12.67;6.67;;;;;;;;;;5078225;28;20200;-70
2021/04/24 00:23:18;;;;;;;13.03;6.60;;;;;;;;;;5079585;28;20204;-70
2021/04/24 00:25:44;;;;;;;12.33;6.70;;;;;;;;;;5077852;28;20180;-70
2021/04/24 00:28:10;;;;;;;10.83;6.70;;;;;;;;;;5077706;28;20687;-69
2021/04/24 00:30:36;;;;;;;15.33;6.47;;;;;;;;;;5075885;28;20185;-71
2021/04/24 00:33:02;;;;;;;14.67;8.73;;;;;;;;;;5073037;28;20192;-71
2021/04/24 00:35:27;;;;;;;13.90;6.27;;;;;;;;;;5080760;28;20192;-71
2021/04/24 00:37:52;;;;;;;10.27;6.70;;;;;;;;;;5077853;28;20204;-70
2021/04/24 00:40:18;;;;;;;12.07;7.00;;;;;;;;;;5076943;28;20173;-70
2021/04/24 00:42:43;;;;;;;13.00;6.80;;;;;;;;;;5076031;28;20203;-72
2021/04/24 00:45:10;;;;;;;13.60;7.07;;;;;;;;;;5076769;28;20181;-70
2021/04/24 00:47:35;;;;;;;12.93;6.70;;;;;;;;;;5078241;28;20184;-71
2021/04/24 00:50:01;;;;;;;13.23;7.80;;;;;;;;;;5076034;28;20239;-70
2021/04/24 00:52:26;;;;;;;13.80;6.90;;;;;;;;;;5078430;28;20204;-70
2021/04/24 00:54:51;;;;;;;14.20;6.97;;;;;;;;;;5077507;28;20231;-69
2021/04/24 00:57:16;;;;;;;15.03;7.13;;;;;;;;;;5076106;28;20207;-71
2021/04/24 00:59:41;;;;;;;15.00;7.40;;;;;;;;;;5075861;28;20177;-70
2021/04/24 01:02:07;;;;;;;13.30;7.30;;;;;;;;;;5077591;28;20579;-71
2021/04/24 01:04:33;;;;;;;12.90;7.23;;;;;;;;;;5086935;28;20219;-71
2021/04/24 01:06:58;;;;;;;12.13;6.53;;;;;;;;;;5076953;28;20192;-71
2021/04/24 01:09:24;;;;;;;17.67;8.57;;;;;;;;;;5076742;28;20176;-71
2021/04/24 01:11:49;;;;;;;13.80;8.13;;;;;;;;;;5080184;28;20694;-70
2021/04/24 01:14:15;;;;;;;14.73;7.70;;;;;;;;;;5086215;28;20610;-70
2021/04/24 01:16:41;;;;;;;14.83;7.83;;;;;;;;;;5081072;28;20192;-70
2021/04/24 01:19:07;;;;;;;15.03;7.67;;;;;;;;;;5080403;28;20200;-71
2021/04/24 01:21:33;;;;;;;13.37;7.37;;;;;;;;;;5083194;28;20704;-69
2021/04/24 01:23:58;;;;;;;13.80;7.37;;;;;;;;;;5076441;28;20179;-71
2021/04/24 01:26:23;;;;;;;13.80;8.00;;;;;;;;;;5081344;28;20181;-70
2021/04/24 01:28:48;;;;;;;15.90;7.00;;;;;;;;;;5077297;28;20188;-71
2021/04/24 01:31:14;;;;;;;14.07;7.23;;;;;;;;;;5077850;28;20196;-70
2021/04/24 01:33:40;;;;;;;14.67;7.60;;;;;;;;;;5081359;28;20187;-71
2021/04/24 01:36:05;;;;;;;15.47;7.30;;;;;;;;;;5083236;28;20196;-70
2021/04/24 01:38:31;;;;;;;14.90;7.80;;;;;;;;;;5078181;28;20190;-70
2021/04/24 01:40:56;;;;;;;14.67;8.10;;;;;;;;;;5078822;28;20204;-71
2021/04/24 01:43:22;;;;;;;13.07;7.20;;;;;;;;;;5076104;28;20184;-72
2021/04/24 01:45:47;;;;;;;19.00;7.87;;;;;;;;;;5079263;28;20628;-71
2021/04/24 01:48:12;;;;;;;15.87;7.83;;;;;;;;;;5081963;28;20192;-71
2021/04/24 01:50:39;;;;;;;18.13;9.53;;;;;;;;;;5083163;28;20293;-71
2021/04/24 01:53:05;;;;;;;15.23;7.47;;;;;;;;;;5077559;28;20734;-71
2021/04/24 01:55:31;;;;;;;15.33;8.23;;;;;;;;;;5081759;28;20246;-71
2021/04/24 01:57:57;;;;;;;15.93;7.67;;;;;;;;;;5076095;28;20200;-70
2021/04/24 02:00:36;;;;;;;18.10;8.40;;;;;;;;;;5075965;28;20176;-71
2021/04/24 02:03:04;;;;;;;14.80;7.80;;;;;;;;;;5079552;28;20485;-70
2021/04/24 02:05:29;;;;;;;21.07;8.53;;;;;;;;;;5089051;28;20705;-71
2021/04/24 02:07:55;;;;;;;17.00;8.37;;;;;;;;;;5083230;28;20258;-71
2021/04/24 02:10:21;;;;;;;17.20;7.93;;;;;;;;;;5092319;28;20176;-70
2021/04/24 02:12:47;;;;;;;19.63;8.77;;;;;;;;;;5086390;28;20241;-71
2021/04/24 02:15:12;;;;;;;17.23;8.57;;;;;;;;;;5087977;28;20184;-71
2021/04/24 02:17:37;;;;;;;19.40;8.10;;;;;;;;;;5078211;28;20207;-71
2021/04/24 02:20:03;;;;;;;14.17;8.23;;;;;;;;;;5081314;28;20555;-71
2021/04/24 02:22:28;;;;;;;18.63;7.57;;;;;;;;;;5081597;28;20197;-71
2021/04/24 02:24:58;;;;;;;16.50;8.80;;;;;;;;;;5088495;28;20184;-71
2021/04/24 02:27:23;;;;;;;17.20;8.23;;;;;;;;;;5085091;28;20422;-71
2021/04/24 02:29:50;;;;;;;16.20;9.30;;;;;;;;;;5087544;28;20285;-71
2021/04/24 02:32:16;;;;;;;14.50;8.07;;;;;;;;;;5080030;28;20633;-71
2021/04/24 02:34:43;;;;;;;15.53;8.33;;;;;;;;;;5084528;28;20459;-71
2021/04/24 02:37:09;;;;;;;16.33;8.00;;;;;;;;;;5086045;28;20461;-71
2021/04/24 02:39:37;;;;;;;18.00;8.93;;;;;;;;;;5086426;28;20263;-71
2021/04/24 02:42:03;;;;;;;16.70;9.10;;;;;;;;;;5088660;28;20591;-70
2021/04/24 02:44:29;;;;;;;16.57;8.90;;;;;;;;;;5085958;28;20208;-70
2021/04/24 02:46:55;;;;;;;15.60;8.63;;;;;;;;;;5080103;28;20177;-71
2021/04/24 02:49:20;;;;;;;12.70;8.13;;;;;;;;;;5080855;28;21592;-71
2021/04/24 02:51:45;;;;;;;19.00;8.93;;;;;;;;;;5077078;28;20291;-69
2021/04/24 02:54:10;;;;;;;16.47;9.40;;;;;;;;;;5077436;28;20180;-70
2021/04/24 02:56:36;;;;;;;15.77;7.93;;;;;;;;;;5079581;28;20598;-70
2021/04/24 02:59:01;;;;;;;18.57;8.30;;;;;;;;;;5082207;28;20304;-70
2021/04/24 03:01:26;;;;;;;13.90;8.13;;;;;;;;;;5081302;28;20231;-71
2021/04/24 03:03:51;;;;;;;18.77;9.77;;;;;;;;;;5077957;28;20263;-70
2021/04/24 03:06:16;;;;;;;15.40;8.47;;;;;;;;;;5082402;28;20187;-71
2021/04/24 03:08:42;;;;;;;18.07;8.27;;;;;;;;;;5077988;28;20558;-72
2021/04/24 03:11:07;;;;;;;18.67;9.07;;;;;;;;;;5083237;28;20212;-70
2021/04/24 03:13:32;;;;;;;21.37;9.93;;;;;;;;;;5082600;28;20204;-71
2021/04/24 03:15:58;;;;;;;16.63;8.90;;;;;;;;;;5077284;28;20172;-71
2021/04/24 03:18:23;;;;;;;18.27;9.00;;;;;;;;;;5079685;28;20211;-71
2021/04/24 03:20:48;;;;;;;20.23;8.53;;;;;;;;;;5081984;28;20196;-71
2021/04/24 03:23:13;;;;;;;18.50;8.87;;;;;;;;;;5078972;28;20192;-72
2021/04/24 03:25:38;;;;;;;21.00;8.47;;;;;;;;;;5073980;28;20173;-70
2021/04/24 03:28:04;;;;;;;15.10;9.30;;;;;;;;;;5078831;28;20639;-69
2021/04/24 03:30:29;;;;;;;17.17;8.70;;;;;;;;;;5077425;28;20176;-72
2021/04/24 03:32:54;;;;;;;18.53;7.93;;;;;;;;;;5076405;28;20264;-71
2021/04/24 03:35:20;;;;;;;16.90;8.17;;;;;;;;;;5085118;28;20202;-72
2021/04/24 03:37:45;;;;;;;18.97;8.80;;;;;;;;;;5077790;28;20192;-69
2021/04/24 03:40:11;;;;;;;18.33;8.73;;;;;;;;;;5081269;28;20595;-70
2021/04/24 03:42:36;;;;;;;18.07;8.83;;;;;;;;;;5075778;28;20762;-70
2021/04/24 03:45:01;;;;;;;22.07;8.87;;;;;;;;;;5084138;28;20172;-70
2021/04/24 03:47:27;;;;;;;18.33;8.70;;;;;;;;;;5082425;28;21435;-70
2021/04/24 03:49:53;;;;;;;20.50;8.53;;;;;;;;;;5082008;28;20179;-71
2021/04/24 03:52:18;;;;;;;16.70;9.50;;;;;;;;;;5078299;28;20579;-69
2021/04/24 03:54:43;;;;;;;16.43;8.97;;;;;;;;;;5076083;28;20188;-70
2021/04/24 03:57:08;;;;;;;15.47;9.30;;;;;;;;;;5077906;28;20218;-71
2021/04/24 03:59:34;;;;;;;16.50;8.70;;;;;;;;;;5075450;28;20327;-71
2021/04/24 04:01:59;;;;;;;17.73;9.10;;;;;;;;;;5089354;28;20180;-71
2021/04/24 04:04:25;;;;;;;20.40;9.37;;;;;;;;;;5077487;28;20180;-70
2021/04/24 04:06:50;;;;;;;20.93;9.57;;;;;;;;;;5085487;28;20690;-71
2021/04/24 04:09:15;;;;;;;18.73;8.97;;;;;;;;;;5081829;28;20176;-71
2021/04/24 04:11:40;;;;;;;16.93;9.40;;;;;;;;;;5075574;28;20219;-71
2021/04/24 04:14:06;;;;;;;17.10;9.03;;;;;;;;;;5078079;28;20188;-71
2021/04/24 04:16:31;;;;;;;18.83;8.17;;;;;;;;;;5078837;28;20239;-71
2021/04/24 04:18:56;;;;;;;19.50;8.80;;;;;;;;;;5078090;28;20168;-70
2021/04/24 04:21:21;;;;;;;15.20;9.37;;;;;;;;;;5077248;28;20196;-70
2021/04/24 04:23:46;;;;;;;24.17;10.77;;;;;;;;;;5075551;28;20745;-71
2021/04/24 04:26:12;;;;;;;21.03;10.20;;;;;;;;;;5085642;28;20215;-70
2021/04/24 04:28:37;;;;;;;20.40;10.13;;;;;;;;;;5080663;28;20222;-71
2021/04/24 04:31:02;;;;;;;19.20;9.20;;;;;;;;;;5079475;28;20231;-69
2021/04/24 04:33:28;;;;;;;21.50;10.73;;;;;;;;;;5077355;28;20318;-72
2021/04/24 04:35:53;;;;;;;18.03;9.93;;;;;;;;;;5077014;28;20665;-71
2021/04/24 04:38:18;;;;;;;14.07;8.87;;;;;;;;;;5078000;28;20986;-69
2021/04/24 04:40:44;;;;;;;17.20;9.73;;;;;;;;;;5079207;28;20680;-69
2021/04/24 04:43:10;;;;;;;22.40;10.47;;;;;;;;;;5087436;28;20183;-70
2021/04/24 04:45:36;;;;;;;20.13;9.27;;;;;;;;;;5084740;28;20224;-71
2021/04/24 04:48:01;;;;;;;22.20;9.33;;;;;;;;;;5079352;28;20181;-71
2021/04/24 04:50:29;;;;;;;15.80;9.17;;;;;;;;;;5085918;28;20578;-71
2021/04/24 04:52:55;;;;;;;19.80;8.80;;;;;;;;;;5081438;28;20281;-70
2021/04/24 04:55:21;;;;;;;17.20;9.50;;;;;;;;;;5078105;28;20181;-71
2021/04/24 04:57:46;;;;;;;17.37;9.27;;;;;;;;;;5080355;28;20204;-70
2021/04/24 05:00:13;;;;;;;18.57;9.67;;;;;;;;;;5085670;28;20181;-72
2021/04/24 05:02:38;;;;;;;19.43;9.43;;;;;;;;;;5078665;28;20287;-70
2021/04/24 05:05:05;;;;;;;17.63;8.97;;;;;;;;;;5082457;28;20173;-70
2021/04/24 05:07:30;;;;;;;20.50;10.67;;;;;;;;;;5074843;28;20259;-71
2021/04/24 05:09:55;;;;;;;22.10;11.50;;;;;;;;;;5082217;28;20608;-70
2021/04/24 05:12:20;;;;;;;19.67;9.73;;;;;;;;;;5087321;28;20727;-70
2021/04/24 05:14:45;;;;;;;23.53;9.40;;;;;;;;;;5082363;28;20208;-71
2021/04/24 05:17:11;;;;;;;18.80;9.30;;;;;;;;;;5081833;28;20363;-71
2021/04/24 05:19:36;;;;;;;20.07;10.13;;;;;;;;;;5075852;28;20169;-70
2021/04/24 05:22:01;;;;;;;20.43;9.93;;;;;;;;;;5078381;28;20569;-71
2021/04/24 05:24:26;;;;;;;21.03;9.67;;;;;;;;;;5076192;28;20179;-70
2021/04/24 05:26:51;;;;;;;18.43;10.27;;;;;;;;;;5072927;28;20191;-70
2021/04/24 05:29:17;;;;;;;17.10;9.70;;;;;;;;;;5078322;28;20268;-70
2021/04/24 05:31:42;;;;;;;17.10;9.77;;;;;;;;;;5074145;28;20258;-70
2021/04/24 05:34:07;;;;;;;21.10;9.47;;;;;;;;;;5080946;28;20220;-70
2021/04/24 05:36:33;;;;;;;14.73;8.20;;;;;;;;;;5077440;28;20639;-72
2021/04/24 05:38:58;;;;;;;18.33;9.20;;;;;;;;;;5076036;28;20173;-71
2021/04/24 05:41:23;;;;;;;15.50;8.73;;;;;;;;;;5076736;28;20757;-68
2021/04/24 05:43:52;;;;;;;17.07;9.17;;;;;;;;;;5076611;28;20653;-69
2021/04/24 05:46:18;;;;;;;14.10;8.73;;;;;;;;;;5078177;28;20197;-69
2021/04/24 05:48:43;;;;;;;17.47;7.63;;;;;;;;;;5075389;28;20233;-70
2021/04/24 05:51:08;;;;;;;12.00;8.93;;;;;;;;;;5080888;28;20242;-68
2021/04/24 05:53:33;;;;;;;15.93;8.30;;;;;;;;;;5087813;28;20549;-70
2021/04/24 05:55:59;;;;;;;13.83;7.37;;;;;;;;;;5083000;28;20181;-71
2021/04/24 05:58:24;;;;;;;10.27;6.87;;;;;;;;;;5084147;28;20254;-71
2021/04/24 06:00:49;;;;;;;17.67;7.03;;;;;;;;;;5090284;28;20219;-70
2021/04/24 06:03:15;;;;;;;16.67;8.80;;;;;;;;;;5076481;28;20256;-71
2021/04/24 06:05:40;;;;;;;13.17;8.17;;;;;;;;;;5077660;28;20180;-71
2021/04/24 06:08:05;;;;;;;9.60;6.53;;;;;;;;;;5070707;28;20217;-69
2021/04/24 06:10:31;;;;;;;12.37;6.80;;;;;;;;;;5078023;28;20193;-70
2021/04/24 06:12:56;;;;;;;12.50;5.73;;;;;;;;;;5077835;28;20707;-71
2021/04/24 06:15:23;;;;;;;8.77;5.67;;;;;;;;;;5082996;28;20685;-70
2021/04/24 06:17:48;;;;;;;10.93;6.67;;;;;;;;;;5076654;28;20193;-70
2021/04/24 06:20:13;;;;;;;10.93;5.73;;;;;;;;;;5079398;28;20173;-70
2021/04/24 06:22:39;;;;;;;7.03;5.10;;;;;;;;;;5076383;28;20689;-70
2021/04/24 06:25:09;;;;;;;9.07;6.17;;;;;;;;;;5078795;28;20176;-70
2021/04/24 06:27:34;;;;;;;9.83;5.77;;;;;;;;;;5076461;28;20188;-69
2021/04/24 06:29:59;;;;;;;9.43;5.30;;;;;;;;;;5075488;28;20206;-70
2021/04/24 06:32:24;;;;;;;8.43;5.13;;;;;;;;;;5078287;28;20200;-69
2021/04/24 06:34:50;;;;;;;10.33;5.13;;;;;;;;;;5077846;28;20379;-71
2021/04/24 06:37:15;;;;;;;9.37;4.83;;;;;;;;;;5086157;28;20192;-70
2021/04/24 06:39:40;;;;;;;10.77;5.40;;;;;;;;;;5080467;28;20176;-71
2021/04/24 06:42:05;;;;;;;6.93;4.63;;;;;;;;;;5075937;28;21473;-69
2021/04/24 06:44:31;;;;;;;8.47;4.27;;;;;;;;;;5076235;28;20464;-70
2021/04/24 06:46:56;;;;;;;8.07;4.50;;;;;;;;;;5076412;28;20180;-70
2021/04/24 06:49:21;;;;;;;11.43;5.93;;;;;;;;;;5079443;28;20604;-71
2021/04/24 06:51:47;;;;;;;9.87;4.47;;;;;;;;;;5079186;28;20209;-70
2021/04/24 06:54:12;;;;;;;9.27;4.70;;;;;;;;;;5079975;28;20181;-70
2021/04/24 06:56:37;;;;;;;9.77;4.83;;;;;;;;;;5079865;28;20200;-70
2021/04/24 06:59:03;;;;;;;11.17;6.10;;;;;;;;;;5084253;28;20207;-70
2021/04/24 07:01:28;;;;;;;12.03;5.73;;;;;;;;;;5083800;28;20473;-69
2021/04/24 07:03:53;;;;;;;8.80;4.60;;;;;;;;;;5068245;28;20264;-70
2021/04/24 07:06:18;;;;;;;7.93;5.57;;;;;;;;;;5073111;28;20287;-70
2021/04/24 07:08:44;;;;;;;8.07;4.43;;;;;;;;;;5086862;28;20259;-69
2021/04/24 07:11:09;;;;;;;7.53;4.47;;;;;;;;;;5077568;28;20307;-70
2021/04/24 07:13:37;;;;;;;5.50;4.17;;;;;;;;;;5081432;28;20177;-71
2021/04/24 07:16:05;;;;;;;7.43;4.87;;;;;;;;;;5084990;28;20226;-70
2021/04/24 07:18:30;;;;;;;7.43;4.87;;;;;;;;;;5077819;28;20200;-70
2021/04/24 07:20:55;;;;;;;8.00;4.30;;;;;;;;;;5075977;28;20228;-70
2021/04/24 07:23:21;;;;;;;6.67;4.50;;;;;;;;;;5075033;28;20187;-70
2021/04/24 07:25:46;;;;;;;8.00;4.53;;;;;;;;;;5080270;28;20268;-71
2021/04/24 07:28:11;;;;;;;7.37;4.00;;;;;;;;;;5079952;28;20203;-70
2021/04/24 07:30:36;;;;;;;7.70;4.83;;;;;;;;;;5087057;28;20219;-71
2021/04/24 07:33:01;;;;;;;6.40;4.57;;;;;;;;;;5086505;28;20184;-70
2021/04/24 07:35:26;;;;;;;7.07;4.63;;;;;;;;;;5079150;28;20265;-71
2021/04/24 07:37:52;;;;;;;6.80;4.27;;;;;;;;;;5081271;28;20213;-70
2021/04/24 07:40:17;;;;;;;8.50;4.40;;;;;;;;;;5081526;28;20204;-71
2021/04/24 07:42:42;;;;;;;6.37;4.40;;;;;;;;;;5078859;28;20528;-70
2021/04/24 07:45:08;;;;;;;7.70;5.10;;;;;;;;;;5077342;28;20176;-71
2021/04/24 07:47:33;;;;;;;8.07;4.80;;;;;;;;;;5078546;28;20172;-71
2021/04/24 07:49:58;;;;;;;8.13;5.00;;;;;;;;;;5079650;28;21653;-71
2021/04/24 07:52:23;;;;;;;6.43;5.27;;;;;;;;;;5078514;28;20211;-70
2021/04/24 07:54:48;;;;;;;9.17;4.73;;;;;;;;;;5081721;28;20189;-71
2021/04/24 07:57:15;;;;;;;8.70;4.33;;;;;;;;;;5088314;28;20581;-71
2021/04/24 07:59:40;;;;;;;7.53;4.57;;;;;;;;;;5085165;28;20603;-71
2021/04/24 08:02:06;;;;;;;8.07;4.70;;;;;;;;;;5079931;28;20276;-70
2021/04/24 08:04:31;;;;;;;6.47;4.60;;;;;;;;;;5076808;28;20172;-71
2021/04/24 08:06:56;;;;;;;8.47;4.17;;;;;;;;;;5078138;28;20181;-71
2021/04/24 08:09:21;;;;;;;7.70;4.17;;;;;;;;;;5080085;28;20188;-71
2021/04/24 08:11:47;;;;;;;5.43;3.67;;;;;;;;;;5077919;28;20227;-70
2021/04/24 08:14:12;;;;;;;4.80;3.33;;;;;;;;;;5077758;28;20177;-69
2021/04/24 08:16:37;;;;;;;5.60;3.47;;;;;;;;;;5074422;28;20196;-70
2021/04/24 08:19:02;;;;;;;3.43;3.10;;;;;;;;;;5079508;28;20191;-69
2021/04/24 08:21:29;;;;;;;3.70;3.07;;;;;;;;;;5078961;28;20595;-68
2021/04/24 08:23:58;;;;;;;2.90;2.30;;;;;;;;;;5085618;28;20202;-69
2021/04/24 08:26:24;;;;;;;3.30;2.53;;;;;;;;;;5088624;28;20284;-69
2021/04/24 08:28:49;;;;;;;4.07;2.60;;;;;;;;;;5077530;28;20266;-69
2021/04/24 08:31:14;;;;;;;3.53;2.60;;;;;;;;;;5079493;28;20228;-70
2021/04/24 08:33:39;;;;;;;6.38;3.00;;;;;;;;;;5077026;28;20176;-68
2021/04/24 08:36:04;;;;;;;3.75;2.58;;;;;;;;;;5078806;28;20585;-70
2021/04/24 08:38:30;;;;;;;5.40;2.63;;;;;;;;;;5078824;28;20253;-69
2021/04/24 08:40:55;;;;;;;4.47;2.42;;;;;;;;;;5078104;28;20578;-70
2021/04/24 08:43:21;;;;;;;3.88;3.03;;;;;;;;;;5076724;28;20176;-70
2021/04/24 08:45:47;;;;;;;4.95;2.72;;;;;;;;;;5079570;28;20225;-70
2021/04/24 08:48:12;;;;;;;5.60;3.40;;;;;;;;;;5078858;28;20631;-70
2021/04/24 08:50:37;;;;;;;6.38;3.00;;;;;;;;;;5077748;28;20176;-70
2021/04/24 08:53:03;;;;;;;7.40;2.85;;;;;;;;;;5078637;28;20208;-69
2021/04/24 08:55:33;;;;;;;4.72;3.20;;;;;;;;;;5076432;28;20184;-70
2021/04/24 08:57:58;;;;;;;4.47;3.47;;;;;;;;;;5077217;28;20208;-69
2021/04/24 09:00:25;;;;;;;4.93;3.60;;;;;;;;;;5075156;28;20237;-70
2021/04/24 09:02:50;;;;;;;6.47;4.13;;;;;;;;;;5077875;28;20549;-68
2021/04/24 09:05:17;;;;;;;7.20;3.28;;;;;;;;;;5077739;28;20274;-69
2021/04/24 09:07:42;;;;;;;6.03;3.28;;;;;;;;;;5083310;28;20192;-69
2021/04/24 09:10:11;;;;;;;3.88;2.60;;;;;;;;;;5088858;28;20191;-71
2021/04/24 09:12:38;;;;;;;6.28;2.67;;;;;;;;;;5076120;28;20450;-70
2021/04/24 09:15:22;;;;;;;3.60;2.45;;;;;;;;;;5075487;28;20179;-69
2021/04/24 09:17:48;;;;;;;3.67;1.95;;;;;;;;;;5078523;28;20217;-70
2021/04/24 09:20:14;;;;;;;5.07;2.78;;;;;;;;;;5077236;28;20217;-69
2021/04/24 09:22:39;;;;;;;3.45;2.20;;;;;;;;;;5076358;28;20192;-69
2021/04/24 09:25:05;;;;;;;2.67;1.83;;;;;;;;;;5076403;28;20671;-69
2021/04/24 09:27:47;;;;;;;3.90;2.10;;;;;;;;;;5077706;28;20274;-69
2021/04/24 09:30:14;;;;;;;2.95;2.40;;;;;;;;;;5078312;28;20183;-69
2021/04/24 09:32:40;;;;;;;5.28;2.38;;;;;;;;;;5075596;28;20212;-69
2021/04/24 09:35:05;;;;;;;2.88;2.20;;;;;;;;;;5076478;28;20197;-69
2021/04/24 09:37:30;;;;;;;3.83;2.25;;;;;;;;;;5072665;28;20192;-69
2021/04/24 09:39:56;;;;;;;4.50;2.30;;;;;;;;;;5072890;28;20191;-70
2021/04/24 09:42:37;;;;;;;2.80;2.25;;;;;;;;;;5077901;28;20430;-70
2021/04/24 09:45:08;;;;;;;3.20;1.98;;;;;;;;;;5074146;28;20649;-70
2021/04/24 09:47:43;;;;;;;6.43;2.65;;;;;;;;;;5076348;28;20184;-70
2021/04/24 09:50:29;;;;;;;3.88;2.88;;;;;;;;;;5074340;28;20179;-69
2021/04/24 09:53:11;;;;;;;5.88;2.25;;;;;;;;;;5067013;28;20181;-68
2021/04/24 09:55:37;;;;;;;4.57;2.67;;;;;;;;;;5080983;28;20180;-69
2021/04/24 09:58:03;;;;;;;3.90;2.22;;;;;;;;;;5085430;28;20197;-70
2021/04/24 10:00:29;;;;;;;3.33;2.33;;;;;;;;;;5079889;28;20176;-70
2021/04/24 10:02:54;;;;;;;3.15;2.30;;;;;;;;;;5070168;28;20226;-69
2021/04/24 10:05:20;;;;;;;3.38;2.20;;;;;;;;;;5080893;28;20180;-70
2021/04/24 10:07:46;;;;;;;4.00;2.65;;;;;;;;;;5076856;28;20192;-70
2021/04/24 10:10:13;;;;;;;5.43;2.35;;;;;;;;;;5075417;28;20188;-70
2021/04/24 10:12:38;;;;;;;2.90;2.53;;;;;;;;;;5077959;28;20645;-69
2021/04/24 10:15:05;;;;;;;5.05;2.70;;;;;;;;;;5082412;28;20282;-69
2021/04/24 10:17:30;;;;;;;4.82;2.92;;;;;;;;;;5075600;28;20288;-69
2021/04/24 10:19:55;;;;;;;4.32;2.30;;;;;;;;;;5075346;28;20251;-70
2021/04/24 10:22:22;;;;;;;4.97;2.63;;;;;;;;;;5073376;28;20200;-70
2021/04/24 10:24:47;;;;;;;3.67;2.58;;;;;;;;;;5076848;28;20184;-71
2021/04/24 10:27:13;;;;;;;4.90;2.38;;;;;;;;;;5080110;28;20658;-70
2021/04/24 10:29:39;;;;;;;3.25;2.80;;;;;;;;;;5074930;28;20184;-69
2021/04/24 10:32:04;;;;;;;5.15;2.88;;;;;;;;;;5079885;28;20574;-72
2021/04/24 10:34:30;;;;;;;4.18;2.65;;;;;;;;;;5078782;28;20662;-70
2021/04/24 10:36:55;;;;;;;4.10;3.10;;;;;;;;;;5083309;28;20205;-70
2021/04/24 10:39:22;;;;;;;3.63;2.47;;;;;;;;;;5081425;28;20255;-70
2021/04/24 10:42:07;;;;;;;4.70;2.78;;;;;;;;;;5077117;28;20195;-70
2021/04/24 10:45:12;;;;;;;4.65;2.92;;;;;;;;;;5065718;28;20223;-70
2021/04/24 10:47:37;;;;;;;6.18;3.00;;;;;;;;;;5061966;28;20177;-70
2021/04/24 10:50:03;;;;;;;5.55;2.95;;;;;;;;;;5065372;28;20215;-69
2021/04/24 10:52:28;;;;;;;3.00;2.58;;;;;;;;;;5068794;28;20220;-70
2021/04/24 10:55:15;;;;;;;3.50;2.47;;;;;;;;;;5075863;28;20607;-69
2021/04/24 10:57:40;;;;;;;3.75;2.63;;;;;;;;;;5079332;28;20203;-70
2021/04/24 11:00:06;;;;;;;5.70;3.20;;;;;;;;;;5077219;28;20178;-70
2021/04/24 11:02:38;;;;;;;4.07;2.97;;;;;;;;;;5075561;28;20200;-70
2021/04/24 11:05:17;;;;;;;6.05;2.97;;;;;;;;;;5076608;28;20165;-70
2021/04/24 11:07:43;;;;;;;5.38;3.00;;;;;;;;;;5083639;28;20675;-70
2021/04/24 11:10:11;;;;;;;3.83;2.75;;;;;;;;;;5085627;28;20258;-71
2021/04/24 11:12:57;;;;;;;3.08;2.50;;;;;;;;;;5083536;28;20205;-70
2021/04/24 11:15:22;;;;;;;4.63;2.63;;;;;;;;;;5082879;28;20211;-70
2021/04/24 11:17:49;;;;;;;4.50;2.73;;;;;;;;;;5076632;28;20251;-71
2021/04/24 11:20:34;;;;;;;4.05;2.97;;;;;;;;;;5079644;28;20425;-70
2021/04/24 11:22:59;;;;;;;4.40;2.97;;;;;;;;;;5081255;28;20173;-70
2021/04/24 11:25:24;;;;;;;4.67;2.70;;;;;;;;;;5083407;28;20230;-70
2021/04/24 11:28:03;;;;;;;3.80;2.70;;;;;;;;;;5090884;28;20487;-70
2021/04/24 11:31:07;;;;;;;5.45;3.35;;;;;;;;;;5080513;28;20842;-70
2021/04/24 11:33:43;;;;;;;4.13;3.03;;;;;;;;;;5102443;28;20258;-71
2021/04/24 11:36:18;;;;;;;3.83;3.40;;;;;;;;;;5100981;28;20192;-71
2021/04/24 11:41:27;;;;;;;4.47;3.53;;;;;;;;;;5084868;28;20214;-71
2021/04/24 11:43:53;;;;;;;4.35;3.20;;;;;;;;;;5085971;28;20642;-72
2021/04/24 11:46:38;;;;;;;4.85;3.15;;;;;;;;;;5083566;28;20314;-70
2021/04/24 11:49:05;;;;;;;5.22;3.70;;;;;;;;;;5080819;28;20187;-69
2021/04/24 11:51:33;;;;;;;3.53;3.17;;;;;;;;;;5084286;28;20210;-68
2021/04/24 11:53:58;;;;;;;5.28;3.55;;;;;;;;;;5079111;28;20429;-70
2021/04/24 11:56:24;;;;;;;5.20;3.65;;;;;;;;;;5078673;28;21013;-69
2021/04/24 11:58:49;;;;;;;5.07;3.88;;;;;;;;;;5080894;28;20168;-69
2021/04/24 12:01:18;;;;;;;4.55;3.40;;;;;;;;;;5077134;28;20193;-69
2021/04/24 12:03:43;;;;;;;6.18;3.65;;;;;;;;;;5072066;28;20169;-70
2021/04/24 12:06:08;;;;;;;4.15;3.15;;;;;;;;;;5079406;28;20264;-69
2021/04/24 12:08:34;;;;;;;4.17;3.53;;;;;;;;;;5073896;28;20219;-70
2021/04/24 12:10:59;;;;;;;7.45;4.55;;;;;;;;;;5073945;28;20472;-69
2021/04/24 12:13:24;;;;;;;6.32;3.67;;;;;;;;;;5078013;28;20176;-69
2021/04/24 12:15:52;;;;;;;5.18;4.00;;;;;;;;;;5074991;28;20196;-71
2021/04/24 12:18:18;;;;;;;7.68;4.35;;;;;;;;;;5078879;28;20213;-70
2021/04/24 12:20:43;;;;;;;6.78;3.80;;;;;;;;;;5079998;28;20197;-70
2021/04/24 12:23:11;;;;;;;7.13;3.83;;;;;;;;;;5077048;28;20704;-70
2021/04/24 12:25:38;;;;;;;4.82;3.85;;;;;;;;;;5076085;28;20576;-70
2021/04/24 12:28:04;;;;;;;7.47;4.20;;;;;;;;;;5071750;28;20189;-70
2021/04/24 12:30:30;;;;;;;6.00;4.43;;;;;;;;;;5074504;28;20247;-70
2021/04/24 12:32:57;;;;;;;6.60;4.82;;;;;;;;;;5076296;28;20339;-70
2021/04/24 12:35:26;;;;;;;7.80;5.05;;;;;;;;;;5080302;28;20364;-71
2021/04/24 12:38:05;;;;;;;6.65;4.35;;;;;;;;;;5082659;28;20322;-69
2021/04/24 12:40:35;;;;;;;7.47;4.72;;;;;;;;;;5071008;28;20177;-70
2021/04/24 12:43:08;;;;;;;6.63;4.70;;;;;;;;;;5070476;28;20675;-71
2021/04/24 12:45:34;;;;;;;7.50;5.15;;;;;;;;;;5072969;28;20180;-70
2021/04/24 12:48:00;;;;;;;6.53;4.60;;;;;;;;;;5076781;28;20177;-71
2021/04/24 12:50:25;;;;;;;8.77;4.95;;;;;;;;;;5080782;28;20180;-71
2021/04/24 12:52:52;;;;;;;7.40;4.25;;;;;;;;;;5071824;28;20212;-69
2021/04/24 12:55:18;;;;;;;6.78;4.60;;;;;;;;;;5081858;28;20184;-70
2021/04/24 12:57:50;;;;;;;7.50;5.72;;;;;;;;;;5079102;28;20196;-70
2021/04/24 13:00:16;;;;;;;7.78;5.40;;;;;;;;;;5077081;28;20180;-69
2021/04/24 13:02:41;;;;;;;8.38;4.85;;;;;;;;;;5075922;28;20547;-70
2021/04/24 13:05:07;;;;;;;7.47;5.03;;;;;;;;;;5075342;28;20183;-70
2021/04/24 13:07:33;;;;;;;7.00;5.68;;;;;;;;;;5075718;28;20420;-70
2021/04/24 13:09:58;;;;;;;10.50;5.25;;;;;;;;;;5075820;28;20168;-70
2021/04/24 13:12:24;;;;;;;9.02;4.82;;;;;;;;;;5077991;28;20211;-69
2021/04/24 13:14:50;;;;;;;9.95;5.45;;;;;;;;;;5076609;28;20173;-70
2021/04/24 13:17:18;;;;;;;5.30;4.22;;;;;;;;;;5076274;28;20291;-70
2021/04/24 13:19:47;;;;;;;7.68;4.47;;;;;;;;;;5074894;28;20212;-72
2021/04/24 13:22:12;;;;;;;9.57;4.80;;;;;;;;;;5078555;28;20223;-69
2021/04/24 13:24:44;;;;;;;7.28;4.88;;;;;;;;;;5080207;28;20626;-70
2021/04/24 13:27:09;;;;;;;8.35;5.03;;;;;;;;;;5080156;28;20641;-69
2021/04/24 13:29:35;;;;;;;9.13;4.82;;;;;;;;;;5068776;28;20247;-70
2021/04/24 13:32:01;;;;;;;6.68;4.22;;;;;;;;;;5074689;28;20196;-70
2021/04/24 13:34:26;;;;;;;6.97;4.72;;;;;;;;;;5080810;28;20305;-70
2021/04/24 13:36:51;;;;;;;7.82;4.50;;;;;;;;;;5077906;28;20295;-70
2021/04/24 13:39:17;;;;;;;7.93;4.43;;;;;;;;;;5076362;28;20224;-70
2021/04/24 13:41:42;;;;;;;9.07;4.50;;;;;;;;;;5085231;28;20445;-69
2021/04/24 13:44:08;;;;;;;7.22;4.50;;;;;;;;;;5090114;28;20608;-71
2021/04/24 13:46:34;;;;;;;6.32;4.35;;;;;;;;;;5075509;28;20173;-71
2021/04/24 13:49:12;;;;;;;6.55;4.00;;;;;;;;;;5077975;28;20172;-71
2021/04/24 13:51:37;;;;;;;5.35;4.05;;;;;;;;;;5075190;28;20213;-71
2021/04/24 13:54:03;;;;;;;9.52;4.85;;;;;;;;;;5082127;28;20544;-70
2021/04/24 13:56:28;;;;;;;6.85;4.30;;;;;;;;;;5079851;28;20222;-69
2021/04/24 13:58:53;;;;;;;8.45;4.07;;;;;;;;;;5076310;28;20219;-70
2021/04/24 14:01:18;;;;;;;5.60;3.90;;;;;;;;;;5091085;28;20223;-71
2021/04/24 14:03:43;;;;;;;9.85;4.30;;;;;;;;;;5075391;28;20196;-70
2021/04/24 14:06:09;;;;;;;8.82;4.20;;;;;;;;;;5079429;28;20176;-71
2021/04/24 14:08:34;;;;;;;6.03;3.90;;;;;;;;;;5082813;28;20177;-70
2021/04/24 14:10:59;;;;;;;5.95;3.85;;;;;;;;;;5083948;28;20238;-71
2021/04/24 14:13:24;;;;;;;5.85;3.83;;;;;;;;;;5081358;28;20208;-70
2021/04/24 14:15:49;;;;;;;6.37;3.30;;;;;;;;;;5082553;28;20172;-71
2021/04/24 14:18:15;;;;;;;6.38;3.30;;;;;;;;;;5074290;28;20514;-72
2021/04/24 14:20:40;;;;;;;6.47;3.85;;;;;;;;;;5074231;28;20168;-70
2021/04/24 14:23:05;;;;;;;7.50;3.15;;;;;;;;;;5080882;28;20566;-70
2021/04/24 14:25:31;;;;;;;5.10;2.95;;;;;;;;;;5079309;28;20189;-71
2021/04/24 14:27:56;;;;;;;7.90;3.35;;;;;;;;;;5083220;28;20199;-71
2021/04/24 14:30:22;;;;;;;5.70;3.45;;;;;;;;;;5079512;28;20195;-71
2021/04/24 14:32:47;;;;;;;5.22;3.30;;;;;;;;;;5091638;28;20180;-71
2021/04/24 14:35:12;;;;;;;6.32;3.45;;;;;;;;;;5076815;28;20204;-69